Portada
METAR-TAF:

METAR-TAF

Aeroports :

Curitiba, Paranà, Brasil

latitud: 25-31S, longitud: 049-10W, altitud: 908 m

Observació

L'informe es va fer fa 1 hora i 7 minuts, a les 12:00 UTC
Vent 3 kt del Est
Temperatura 13°C
Humitat 88%
Pressió 1024 hPa
Visibilitat 10 km o més
sense núvols per sota de 1500 mi sense presència de cumulonimbus.

METAR: SBCT 211200Z 09003KT CAVOK 13/11 Q1024

Hora: 10:07 (13:07 UTC)

Pronòstic

L'informe es va fer fa 3 hores i 37 minuts, a les 09:30 UTC
Pronòstic vàlid del 21 a les 12 UTC al 22 a les 12 UTC
Vent 7 kt del Nord-Est
Visibilitat 10 km o més
sense núvols per sota de 1500 mi sense presència de cumulonimbus.
Probabilitat 30% :
Temporalment
l' 22 a les 00 UTC al 22 a les 06 UTC
Vent 3 kt del Nord/Nord-Est
Visibilitat: 0500 m
a una alçada de 100 ft
boira

TAF: SBCT 210930Z 2112/2212 04007KT CAVOK TX23/2117Z TN13/2204Z PROB30 TEMPO 2200/2206 03003KT 0500 FG VV001 RMK PEG

Observacions i pronòstics meteorològics de més de 4000 aeroports (METAR i TAF).

Les estacions disponibles són els punts grocs i vermells al mapa.

Posi el ratolí al punt desitjat per veure el nom de l'estació.

Feu clic per veure les observacions i els pronòstics meteorològics.

Per canviar el mapa: feu clic els botons verds amb una creu de color negre per apropar; al botó verd amb un guió per allunyar la imatge; o en les fletxes verdes per a mapes adjacents.


METAR-TAF: